sensor_id;sensor_type;location;lat;lon;timestamp;temperature;humidity
23207;DHT22;11773;52.570;13.052;2022-10-28T00:01:45;13.80;99.90
23207;DHT22;11773;52.570;13.052;2022-10-28T00:04:14;13.80;99.90
23207;DHT22;11773;52.570;13.052;2022-10-28T00:06:44;13.80;99.90
23207;DHT22;11773;52.570;13.052;2022-10-28T00:09:13;13.90;99.90
23207;DHT22;11773;52.570;13.052;2022-10-28T00:11:43;13.80;99.90
23207;DHT22;11773;52.570;13.052;2022-10-28T00:14:12;13.80;99.90
23207;DHT22;11773;52.570;13.052;2022-10-28T00:16:42;13.90;99.90
23207;DHT22;11773;52.570;13.052;2022-10-28T00:19:12;13.80;99.90
23207;DHT22;11773;52.570;13.052;2022-10-28T00:21:43;13.80;99.90
23207;DHT22;11773;52.570;13.052;2022-10-28T00:24:13;13.90;99.90
23207;DHT22;11773;52.570;13.052;2022-10-28T00:26:44;13.90;99.90
23207;DHT22;11773;52.570;13.052;2022-10-28T00:29:16;13.80;99.90
23207;DHT22;11773;52.570;13.052;2022-10-28T00:31:47;13.90;99.90
23207;DHT22;11773;52.570;13.052;2022-10-28T00:34:19;14.00;99.90
23207;DHT22;11773;52.570;13.052;2022-10-28T00:36:49;14.00;99.90
23207;DHT22;11773;52.570;13.052;2022-10-28T00:39:21;14.10;99.90
23207;DHT22;11773;52.570;13.052;2022-10-28T00:41:56;14.10;99.90
23207;DHT22;11773;52.570;13.052;2022-10-28T00:44:54;14.00;99.90
23207;DHT22;11773;52.570;13.052;2022-10-28T00:50:44;13.90;99.90
23207;DHT22;11773;52.570;13.052;2022-10-28T00:53:28;14.00;99.90
23207;DHT22;11773;52.570;13.052;2022-10-28T00:56:01;14.00;99.90
23207;DHT22;11773;52.570;13.052;2022-10-28T00:58:32;13.90;99.90
23207;DHT22;11773;52.570;13.052;2022-10-28T01:01:02;13.90;99.90
23207;DHT22;11773;52.570;13.052;2022-10-28T01:03:31;13.90;99.90
23207;DHT22;11773;52.570;13.052;2022-10-28T01:06:01;13.90;99.90
23207;DHT22;11773;52.570;13.052;2022-10-28T01:08:31;13.90;99.90
23207;DHT22;11773;52.570;13.052;2022-10-28T01:11:18;14.00;99.90
23207;DHT22;11773;52.570;13.052;2022-10-28T01:16:53;14.00;99.90
23207;DHT22;11773;52.570;13.052;2022-10-28T01:19:50;13.90;99.90
23207;DHT22;11773;52.570;13.052;2022-10-28T01:22:57;13.80;99.90
23207;DHT22;11773;52.570;13.052;2022-10-28T01:34:03;13.70;99.90
23207;DHT22;11773;52.570;13.052;2022-10-28T01:36:58;13.60;99.90
23207;DHT22;11773;52.570;13.052;2022-10-28T01:39:33;13.70;99.90
23207;DHT22;11773;52.570;13.052;2022-10-28T01:42:37;13.60;99.90
23207;DHT22;11773;52.570;13.052;2022-10-28T01:45:37;13.70;99.90
23207;DHT22;11773;52.570;13.052;2022-10-28T01:48:18;13.70;99.90
23207;DHT22;11773;52.570;13.052;2022-10-28T01:51:07;13.80;99.90
23207;DHT22;11773;52.570;13.052;2022-10-28T01:53:50;13.70;99.90
23207;DHT22;11773;52.570;13.052;2022-10-28T01:56:26;13.70;99.90
23207;DHT22;11773;52.570;13.052;2022-10-28T01:58:59;13.80;99.90
23207;DHT22;11773;52.570;13.052;2022-10-28T02:01:31;13.80;99.90
23207;DHT22;11773;52.570;13.052;2022-10-28T02:04:02;13.70;99.90
23207;DHT22;11773;52.570;13.052;2022-10-28T02:06:32;13.70;99.90
23207;DHT22;11773;52.570;13.052;2022-10-28T02:09:08;13.70;99.90
23207;DHT22;11773;52.570;13.052;2022-10-28T02:11:59;13.60;99.90
23207;DHT22;11773;52.570;13.052;2022-10-28T02:14:57;13.70;99.90
23207;DHT22;11773;52.570;13.052;2022-10-28T02:17:49;13.60;99.90
23207;DHT22;11773;52.570;13.052;2022-10-28T02:26:11;13.50;99.90
23207;DHT22;11773;52.570;13.052;2022-10-28T02:29:05;13.60;99.90
23207;DHT22;11773;52.570;13.052;2022-10-28T02:31:39;13.60;99.90
23207;DHT22;11773;52.570;13.052;2022-10-28T02:34:20;13.60;99.90
23207;DHT22;11773;52.570;13.052;2022-10-28T02:36:50;13.60;99.90
23207;DHT22;11773;52.570;13.052;2022-10-28T02:39:27;13.60;99.90
23207;DHT22;11773;52.570;13.052;2022-10-28T02:42:14;13.50;99.90
23207;DHT22;11773;52.570;13.052;2022-10-28T02:44:48;13.50;99.90
23207;DHT22;11773;52.570;13.052;2022-10-28T02:47:23;13.50;99.90
23207;DHT22;11773;52.570;13.052;2022-10-28T02:49:58;13.40;99.90
23207;DHT22;11773;52.570;13.052;2022-10-28T02:52:30;13.40;99.90
23207;DHT22;11773;52.570;13.052;2022-10-28T02:55:03;13.40;99.90
23207;DHT22;11773;52.570;13.052;2022-10-28T02:57:38;13.40;99.90
23207;DHT22;11773;52.570;13.052;2022-10-28T03:00:10;13.30;99.90
23207;DHT22;11773;52.570;13.052;2022-10-28T03:02:42;13.30;99.90
23207;DHT22;11773;52.570;13.052;2022-10-28T03:05:11;13.40;99.90
23207;DHT22;11773;52.570;13.052;2022-10-28T03:07:41;13.30;99.90
23207;DHT22;11773;52.570;13.052;2022-10-28T03:10:10;13.30;99.90
23207;DHT22;11773;52.570;13.052;2022-10-28T03:12:40;13.20;99.90
23207;DHT22;11773;52.570;13.052;2022-10-28T03:15:09;13.30;99.90
23207;DHT22;11773;52.570;13.052;2022-10-28T03:17:39;13.30;99.90
23207;DHT22;11773;52.570;13.052;2022-10-28T03:20:09;13.30;99.90
23207;DHT22;11773;52.570;13.052;2022-10-28T03:22:43;13.20;99.90
23207;DHT22;11773;52.570;13.052;2022-10-28T03:25:13;13.20;99.90
23207;DHT22;11773;52.570;13.052;2022-10-28T03:27:42;13.20;99.90
23207;DHT22;11773;52.570;13.052;2022-10-28T03:30:12;13.10;99.90
23207;DHT22;11773;52.570;13.052;2022-10-28T03:32:41;13.10;99.90
23207;DHT22;11773;52.570;13.052;2022-10-28T03:35:11;13.10;99.90
23207;DHT22;11773;52.570;13.052;2022-10-28T03:37:41;13.10;99.90
23207;DHT22;11773;52.570;13.052;2022-10-28T03:40:12;13.00;99.90
23207;DHT22;11773;52.570;13.052;2022-10-28T03:42:41;13.10;99.90
23207;DHT22;11773;52.570;13.052;2022-10-28T03:45:11;13.20;99.90
23207;DHT22;11773;52.570;13.052;2022-10-28T03:47:40;13.00;99.90
23207;DHT22;11773;52.570;13.052;2022-10-28T03:50:10;13.00;99.90
23207;DHT22;11773;52.570;13.052;2022-10-28T03:52:41;13.00;99.90
23207;DHT22;11773;52.570;13.052;2022-10-28T03:55:11;13.00;99.90
23207;DHT22;11773;52.570;13.052;2022-10-28T03:57:40;13.10;99.90
23207;DHT22;11773;52.570;13.052;2022-10-28T04:00:10;13.00;99.90
23207;DHT22;11773;52.570;13.052;2022-10-28T04:02:40;13.00;99.90
23207;DHT22;11773;52.570;13.052;2022-10-28T04:05:09;12.90;99.90
23207;DHT22;11773;52.570;13.052;2022-10-28T04:07:39;12.90;99.90
23207;DHT22;11773;52.570;13.052;2022-10-28T04:10:09;12.90;99.90
23207;DHT22;11773;52.570;13.052;2022-10-28T04:12:39;13.00;99.90
23207;DHT22;11773;52.570;13.052;2022-10-28T04:15:08;12.90;99.90
23207;DHT22;11773;52.570;13.052;2022-10-28T04:17:38;13.00;99.90
23207;DHT22;11773;52.570;13.052;2022-10-28T04:20:08;12.90;99.90
23207;DHT22;11773;52.570;13.052;2022-10-28T04:22:37;12.90;99.90
23207;DHT22;11773;52.570;13.052;2022-10-28T04:25:07;13.00;99.90
23207;DHT22;11773;52.570;13.052;2022-10-28T04:27:36;12.90;99.90
23207;DHT22;11773;52.570;13.052;2022-10-28T04:30:06;12.90;99.90
23207;DHT22;11773;52.570;13.052;2022-10-28T04:32:39;12.90;99.90
23207;DHT22;11773;52.570;13.052;2022-10-28T04:35:10;12.80;99.90
23207;DHT22;11773;52.570;13.052;2022-10-28T04:37:40;12.70;99.90
23207;DHT22;11773;52.570;13.052;2022-10-28T04:40:10;12.70;99.90
23207;DHT22;11773;52.570;13.052;2022-10-28T04:42:40;12.70;99.90
23207;DHT22;11773;52.570;13.052;2022-10-28T04:45:09;12.60;99.90
23207;DHT22;11773;52.570;13.052;2022-10-28T04:47:39;12.60;99.90
23207;DHT22;11773;52.570;13.052;2022-10-28T04:50:09;12.70;99.90
23207;DHT22;11773;52.570;13.052;2022-10-28T04:52:38;12.70;99.90
23207;DHT22;11773;52.570;13.052;2022-10-28T04:55:08;12.60;99.90
23207;DHT22;11773;52.570;13.052;2022-10-28T04:57:37;12.60;99.90
23207;DHT22;11773;52.570;13.052;2022-10-28T05:00:07;12.60;99.90
23207;DHT22;11773;52.570;13.052;2022-10-28T05:02:37;12.60;99.90
23207;DHT22;11773;52.570;13.052;2022-10-28T05:05:08;12.60;99.90
23207;DHT22;11773;52.570;13.052;2022-10-28T05:07:38;12.60;99.90
23207;DHT22;11773;52.570;13.052;2022-10-28T05:10:08;12.70;99.90
23207;DHT22;11773;52.570;13.052;2022-10-28T05:12:42;12.60;99.90
23207;DHT22;11773;52.570;13.052;2022-10-28T05:15:13;12.60;99.90
23207;DHT22;11773;52.570;13.052;2022-10-28T05:17:45;12.60;99.90
23207;DHT22;11773;52.570;13.052;2022-10-28T05:20:16;12.60;99.90
23207;DHT22;11773;52.570;13.052;2022-10-28T05:22:49;12.60;99.90
23207;DHT22;11773;52.570;13.052;2022-10-28T05:25:22;12.70;99.90
23207;DHT22;11773;52.570;13.052;2022-10-28T05:27:51;12.70;99.90
23207;DHT22;11773;52.570;13.052;2022-10-28T05:30:21;12.60;99.90
23207;DHT22;11773;52.570;13.052;2022-10-28T05:32:50;12.60;99.90
23207;DHT22;11773;52.570;13.052;2022-10-28T05:35:22;12.60;99.90
23207;DHT22;11773;52.570;13.052;2022-10-28T05:37:51;12.60;99.90
23207;DHT22;11773;52.570;13.052;2022-10-28T05:40:20;12.60;99.90
23207;DHT22;11773;52.570;13.052;2022-10-28T05:42:50;12.60;99.90
23207;DHT22;11773;52.570;13.052;2022-10-28T05:45:20;12.60;99.90
23207;DHT22;11773;52.570;13.052;2022-10-28T05:47:49;12.70;99.90
23207;DHT22;11773;52.570;13.052;2022-10-28T05:50:20;12.70;99.90
23207;DHT22;11773;52.570;13.052;2022-10-28T05:52:51;12.70;99.90
23207;DHT22;11773;52.570;13.052;2022-10-28T05:55:24;12.60;99.90
23207;DHT22;11773;52.570;13.052;2022-10-28T05:57:56;12.70;99.90
23207;DHT22;11773;52.570;13.052;2022-10-28T06:00:26;12.80;99.90
23207;DHT22;11773;52.570;13.052;2022-10-28T06:03:07;12.80;99.90
23207;DHT22;11773;52.570;13.052;2022-10-28T06:05:43;12.70;99.90
23207;DHT22;11773;52.570;13.052;2022-10-28T06:08:14;12.70;99.90
23207;DHT22;11773;52.570;13.052;2022-10-28T06:10:51;12.70;99.90
23207;DHT22;11773;52.570;13.052;2022-10-28T06:13:22;12.60;99.90
23207;DHT22;11773;52.570;13.052;2022-10-28T06:15:56;12.60;99.90
23207;DHT22;11773;52.570;13.052;2022-10-28T06:18:25;12.60;99.90
23207;DHT22;11773;52.570;13.052;2022-10-28T06:20:56;12.60;99.90
23207;DHT22;11773;52.570;13.052;2022-10-28T06:23:27;12.70;99.90
23207;DHT22;11773;52.570;13.052;2022-10-28T06:25:59;12.70;99.90
23207;DHT22;11773;52.570;13.052;2022-10-28T06:28:30;12.70;99.90
23207;DHT22;11773;52.570;13.052;2022-10-28T06:31:02;12.80;99.90
23207;DHT22;11773;52.570;13.052;2022-10-28T06:33:32;12.70;99.90
23207;DHT22;11773;52.570;13.052;2022-10-28T06:36:02;12.70;99.90
23207;DHT22;11773;52.570;13.052;2022-10-28T06:38:32;12.80;99.90
23207;DHT22;11773;52.570;13.052;2022-10-28T06:41:02;12.80;99.90
23207;DHT22;11773;52.570;13.052;2022-10-28T06:43:31;12.70;99.90
23207;DHT22;11773;52.570;13.052;2022-10-28T06:46:02;12.80;99.90
23207;DHT22;11773;52.570;13.052;2022-10-28T06:48:32;12.70;99.90
23207;DHT22;11773;52.570;13.052;2022-10-28T06:51:01;12.60;99.90
23207;DHT22;11773;52.570;13.052;2022-10-28T06:53:31;12.80;99.90
23207;DHT22;11773;52.570;13.052;2022-10-28T06:56:00;12.70;99.90
23207;DHT22;11773;52.570;13.052;2022-10-28T06:58:30;12.70;99.90
23207;DHT22;11773;52.570;13.052;2022-10-28T07:01:04;12.80;99.90
23207;DHT22;11773;52.570;13.052;2022-10-28T07:03:34;12.80;99.90
23207;DHT22;11773;52.570;13.052;2022-10-28T07:06:03;12.80;99.90
23207;DHT22;11773;52.570;13.052;2022-10-28T07:08:33;12.90;99.90
23207;DHT22;11773;52.570;13.052;2022-10-28T07:11:02;12.90;99.90
23207;DHT22;11773;52.570;13.052;2022-10-28T07:13:32;12.90;99.90
23207;DHT22;11773;52.570;13.052;2022-10-28T07:16:02;13.00;99.90
23207;DHT22;11773;52.570;13.052;2022-10-28T07:18:32;13.00;99.90
23207;DHT22;11773;52.570;13.052;2022-10-28T07:21:01;13.10;99.90
23207;DHT22;11773;52.570;13.052;2022-10-28T07:23:31;13.20;99.90
23207;DHT22;11773;52.570;13.052;2022-10-28T07:26:00;13.30;99.90
23207;DHT22;11773;52.570;13.052;2022-10-28T07:28:30;13.50;99.90
23207;DHT22;11773;52.570;13.052;2022-10-28T07:31:03;13.50;99.90
23207;DHT22;11773;52.570;13.052;2022-10-28T07:33:32;13.60;99.90
23207;DHT22;11773;52.570;13.052;2022-10-28T07:36:03;13.70;99.90
23207;DHT22;11773;52.570;13.052;2022-10-28T07:38:33;13.90;99.90
23207;DHT22;11773;52.570;13.052;2022-10-28T07:41:07;14.10;99.90
23207;DHT22;11773;52.570;13.052;2022-10-28T07:43:37;14.30;99.90
23207;DHT22;11773;52.570;13.052;2022-10-28T07:46:08;14.40;99.90
23207;DHT22;11773;52.570;13.052;2022-10-28T07:48:38;14.50;99.90
23207;DHT22;11773;52.570;13.052;2022-10-28T07:51:09;14.60;99.90
23207;DHT22;11773;52.570;13.052;2022-10-28T07:53:41;14.60;99.90
23207;DHT22;11773;52.570;13.052;2022-10-28T07:56:11;14.80;99.90
23207;DHT22;11773;52.570;13.052;2022-10-28T07:58:42;14.80;99.90
23207;DHT22;11773;52.570;13.052;2022-10-28T08:01:14;14.80;99.90
23207;DHT22;11773;52.570;13.052;2022-10-28T08:03:45;14.90;99.90
23207;DHT22;11773;52.570;13.052;2022-10-28T08:06:17;15.10;99.90
23207;DHT22;11773;52.570;13.052;2022-10-28T08:08:52;15.10;99.90
23207;DHT22;11773;52.570;13.052;2022-10-28T08:11:22;15.30;99.90
23207;DHT22;11773;52.570;13.052;2022-10-28T08:13:52;15.30;99.90
23207;DHT22;11773;52.570;13.052;2022-10-28T08:16:23;15.40;99.90
23207;DHT22;11773;52.570;13.052;2022-10-28T08:18:54;15.50;99.90
23207;DHT22;11773;52.570;13.052;2022-10-28T08:21:24;15.60;99.90
23207;DHT22;11773;52.570;13.052;2022-10-28T08:23:54;15.60;99.90
23207;DHT22;11773;52.570;13.052;2022-10-28T08:26:23;15.60;99.90
23207;DHT22;11773;52.570;13.052;2022-10-28T08:28:52;15.70;99.90
23207;DHT22;11773;52.570;13.052;2022-10-28T08:31:22;15.80;99.90
23207;DHT22;11773;52.570;13.052;2022-10-28T08:33:52;15.80;99.90
23207;DHT22;11773;52.570;13.052;2022-10-28T08:36:21;15.80;99.90
23207;DHT22;11773;52.570;13.052;2022-10-28T08:38:51;15.90;99.90
23207;DHT22;11773;52.570;13.052;2022-10-28T08:47:14;16.10;99.90
23207;DHT22;11773;52.570;13.052;2022-10-28T08:50:03;16.10;99.90
23207;DHT22;11773;52.570;13.052;2022-10-28T08:52:52;16.20;99.90
23207;DHT22;11773;52.570;13.052;2022-10-28T08:55:34;16.30;99.90
23207;DHT22;11773;52.570;13.052;2022-10-28T08:58:27;16.40;99.90
23207;DHT22;11773;52.570;13.052;2022-10-28T09:01:00;16.50;99.90
23207;DHT22;11773;52.570;13.052;2022-10-28T09:03:36;16.60;99.90
23207;DHT22;11773;52.570;13.052;2022-10-28T09:06:09;16.80;99.90
23207;DHT22;11773;52.570;13.052;2022-10-28T09:08:41;16.80;99.90
23207;DHT22;11773;52.570;13.052;2022-10-28T09:17:44;16.90;99.90
23207;DHT22;11773;52.570;13.052;2022-10-28T09:20:04;16.90;99.90
23207;DHT22;11773;52.570;13.052;2022-10-28T09:25:27;17.00;99.90
23207;DHT22;11773;52.570;13.052;2022-10-28T09:30:45;17.30;99.90
23207;DHT22;11773;52.570;13.052;2022-10-28T09:36:22;17.60;99.90
23207;DHT22;11773;52.570;13.052;2022-10-28T09:38:55;17.60;99.90
23207;DHT22;11773;52.570;13.052;2022-10-28T09:41:35;17.70;99.90
23207;DHT22;11773;52.570;13.052;2022-10-28T09:44:17;17.70;99.90
23207;DHT22;11773;52.570;13.052;2022-10-28T09:46:50;17.80;99.90
23207;DHT22;11773;52.570;13.052;2022-10-28T09:49:25;17.90;99.90
23207;DHT22;11773;52.570;13.052;2022-10-28T09:52:06;17.90;99.90
23207;DHT22;11773;52.570;13.052;2022-10-28T09:54:47;18.00;99.90
23207;DHT22;11773;52.570;13.052;2022-10-28T09:57:19;18.10;99.90
23207;DHT22;11773;52.570;13.052;2022-10-28T09:59:50;18.20;99.90
23207;DHT22;11773;52.570;13.052;2022-10-28T10:02:28;18.20;99.90
23207;DHT22;11773;52.570;13.052;2022-10-28T10:05:01;18.30;99.90
23207;DHT22;11773;52.570;13.052;2022-10-28T10:07:42;18.30;99.90
23207;DHT22;11773;52.570;13.052;2022-10-28T10:10:13;18.50;99.90
23207;DHT22;11773;52.570;13.052;2022-10-28T10:12:54;18.60;99.90
23207;DHT22;11773;52.570;13.052;2022-10-28T10:15:31;18.80;99.90
23207;DHT22;11773;52.570;13.052;2022-10-28T10:18:04;18.80;99.90
23207;DHT22;11773;52.570;13.052;2022-10-28T10:20:53;18.90;99.90
23207;DHT22;11773;52.570;13.052;2022-10-28T10:23:35;18.90;99.90
23207;DHT22;11773;52.570;13.052;2022-10-28T10:26:08;19.00;99.90
23207;DHT22;11773;52.570;13.052;2022-10-28T10:28:48;19.10;99.90
23207;DHT22;11773;52.570;13.052;2022-10-28T10:31:24;19.20;99.90
23207;DHT22;11773;52.570;13.052;2022-10-28T10:33:57;19.30;99.90
23207;DHT22;11773;52.570;13.052;2022-10-28T10:36:27;19.40;99.90
23207;DHT22;11773;52.570;13.052;2022-10-28T10:39:00;19.40;99.90
23207;DHT22;11773;52.570;13.052;2022-10-28T10:41:36;19.40;99.90
23207;DHT22;11773;52.570;13.052;2022-10-28T10:44:32;19.50;99.90
23207;DHT22;11773;52.570;13.052;2022-10-28T10:49:36;19.60;99.90
23207;DHT22;11773;52.570;13.052;2022-10-28T10:52:15;19.70;99.90
23207;DHT22;11773;52.570;13.052;2022-10-28T10:54:58;19.70;99.90
23207;DHT22;11773;52.570;13.052;2022-10-28T10:57:32;19.80;99.90
23207;DHT22;11773;52.570;13.052;2022-10-28T11:00:03;19.90;99.90
23207;DHT22;11773;52.570;13.052;2022-10-28T11:02:36;19.90;99.90
23207;DHT22;11773;52.570;13.052;2022-10-28T11:05:08;20.00;99.90
23207;DHT22;11773;52.570;13.052;2022-10-28T11:07:44;20.10;99.90
23207;DHT22;11773;52.570;13.052;2022-10-28T11:10:28;20.10;99.90
23207;DHT22;11773;52.570;13.052;2022-10-28T11:13:02;20.10;99.90
23207;DHT22;11773;52.570;13.052;2022-10-28T11:15:33;20.30;99.90
23207;DHT22;11773;52.570;13.052;2022-10-28T11:20:59;20.30;99.90
23207;DHT22;11773;52.570;13.052;2022-10-28T11:24:08;20.40;99.90
23207;DHT22;11773;52.570;13.052;2022-10-28T11:27:05;20.60;99.90
23207;DHT22;11773;52.570;13.052;2022-10-28T11:29:34;20.60;99.90
23207;DHT22;11773;52.570;13.052;2022-10-28T11:32:23;20.60;99.90
23207;DHT22;11773;52.570;13.052;2022-10-28T11:37:57;20.60;99.90
23207;DHT22;11773;52.570;13.052;2022-10-28T11:40:29;20.80;99.90
23207;DHT22;11773;52.570;13.052;2022-10-28T11:43:55;20.80;99.90
23207;DHT22;11773;52.570;13.052;2022-10-28T11:46:14;20.90;99.90
23207;DHT22;11773;52.570;13.052;2022-10-28T12:10:02;21.30;99.90
23207;DHT22;11773;52.570;13.052;2022-10-28T12:13:20;21.40;99.90
23207;DHT22;11773;52.570;13.052;2022-10-28T12:18:34;21.40;99.90
23207;DHT22;11773;52.570;13.052;2022-10-28T12:21:27;21.30;99.90
23207;DHT22;11773;52.570;13.052;2022-10-28T12:24:12;21.40;99.90
23207;DHT22;11773;52.570;13.052;2022-10-28T12:26:54;21.50;99.90
23207;DHT22;11773;52.570;13.052;2022-10-28T12:29:36;21.50;99.90
23207;DHT22;11773;52.570;13.052;2022-10-28T12:32:12;21.50;99.90
23207;DHT22;11773;52.570;13.052;2022-10-28T12:34:47;21.50;99.90
23207;DHT22;11773;52.570;13.052;2022-10-28T12:37:36;21.60;99.90
23207;DHT22;11773;52.570;13.052;2022-10-28T12:40:17;21.50;99.90
23207;DHT22;11773;52.570;13.052;2022-10-28T12:42:59;21.60;99.90
23207;DHT22;11773;52.570;13.052;2022-10-28T12:45:31;21.60;99.90
23207;DHT22;11773;52.570;13.052;2022-10-28T12:48:07;21.50;99.90
23207;DHT22;11773;52.570;13.052;2022-10-28T12:50:49;21.50;99.90
23207;DHT22;11773;52.570;13.052;2022-10-28T12:53:45;21.60;99.90
23207;DHT22;11773;52.570;13.052;2022-10-28T12:56:41;21.60;99.90
23207;DHT22;11773;52.570;13.052;2022-10-28T12:59:16;21.60;99.90
23207;DHT22;11773;52.570;13.052;2022-10-28T13:02:01;21.60;99.90
23207;DHT22;11773;52.570;13.052;2022-10-28T13:04:36;21.50;99.90
23207;DHT22;11773;52.570;13.052;2022-10-28T13:07:32;21.60;99.90
23207;DHT22;11773;52.570;13.052;2022-10-28T13:10:16;21.60;99.90
23207;DHT22;11773;52.570;13.052;2022-10-28T13:13:06;21.80;99.90
23207;DHT22;11773;52.570;13.052;2022-10-28T13:15:54;21.70;99.90
23207;DHT22;11773;52.570;13.052;2022-10-28T13:22:15;21.70;99.90
23207;DHT22;11773;52.570;13.052;2022-10-28T13:25:01;21.70;99.90
23207;DHT22;11773;52.570;13.052;2022-10-28T13:27:36;21.70;99.90
23207;DHT22;11773;52.570;13.052;2022-10-28T13:30:20;21.70;99.90
23207;DHT22;11773;52.570;13.052;2022-10-28T13:32:51;21.70;99.90
23207;DHT22;11773;52.570;13.052;2022-10-28T13:35:30;21.80;99.90
23207;DHT22;11773;52.570;13.052;2022-10-28T13:38:01;21.80;99.90
23207;DHT22;11773;52.570;13.052;2022-10-28T13:43:22;21.90;99.90
23207;DHT22;11773;52.570;13.052;2022-10-28T13:46:09;21.80;99.90
23207;DHT22;11773;52.570;13.052;2022-10-28T13:48:44;21.80;99.90
23207;DHT22;11773;52.570;13.052;2022-10-28T13:53:52;21.70;99.90
23207;DHT22;11773;52.570;13.052;2022-10-28T13:56:47;21.70;99.90
23207;DHT22;11773;52.570;13.052;2022-10-28T14:01:58;21.70;99.90
23207;DHT22;11773;52.570;13.052;2022-10-28T14:04:33;21.60;99.90
23207;DHT22;11773;52.570;13.052;2022-10-28T14:07:15;21.60;99.90
23207;DHT22;11773;52.570;13.052;2022-10-28T14:09:41;21.50;99.90
23207;DHT22;11773;52.570;13.052;2022-10-28T14:12:21;21.50;99.90
23207;DHT22;11773;52.570;13.052;2022-10-28T14:15:16;21.50;99.90
23207;DHT22;11773;52.570;13.052;2022-10-28T14:20:40;21.40;99.90
23207;DHT22;11773;52.570;13.052;2022-10-28T14:26:05;21.40;99.90
23207;DHT22;11773;52.570;13.052;2022-10-28T14:36:46;21.40;99.90
23207;DHT22;11773;52.570;13.052;2022-10-28T14:40:36;21.40;99.90
23207;DHT22;11773;52.570;13.052;2022-10-28T14:42:36;21.30;99.90
23207;DHT22;11773;52.570;13.052;2022-10-28T14:45:26;21.20;99.90
23207;DHT22;11773;52.570;13.052;2022-10-28T14:48:28;21.20;99.90
23207;DHT22;11773;52.570;13.052;2022-10-28T14:51:07;21.00;99.90
23207;DHT22;11773;52.570;13.052;2022-10-28T14:53:40;21.00;99.90
23207;DHT22;11773;52.570;13.052;2022-10-28T14:56:28;21.00;99.90
23207;DHT22;11773;52.570;13.052;2022-10-28T14:59:20;20.90;99.90
23207;DHT22;11773;52.570;13.052;2022-10-28T15:02:06;20.80;99.90
23207;DHT22;11773;52.570;13.052;2022-10-28T15:04:41;20.90;99.90
23207;DHT22;11773;52.570;13.052;2022-10-28T15:07:17;20.70;99.90
23207;DHT22;11773;52.570;13.052;2022-10-28T15:09:48;20.70;99.90
23207;DHT22;11773;52.570;13.052;2022-10-28T15:12:22;20.60;99.90
23207;DHT22;11773;52.570;13.052;2022-10-28T15:14:56;20.40;99.90
23207;DHT22;11773;52.570;13.052;2022-10-28T15:17:27;20.30;99.90
23207;DHT22;11773;52.570;13.052;2022-10-28T15:19:59;20.40;99.90
23207;DHT22;11773;52.570;13.052;2022-10-28T15:22:32;20.30;99.90
23207;DHT22;11773;52.570;13.052;2022-10-28T15:25:03;20.30;99.90
23207;DHT22;11773;52.570;13.052;2022-10-28T15:27:37;20.20;99.90
23207;DHT22;11773;52.570;13.052;2022-10-28T15:30:16;20.10;99.90
23207;DHT22;11773;52.570;13.052;2022-10-28T15:32:50;20.00;99.90
23207;DHT22;11773;52.570;13.052;2022-10-28T15:38:02;19.70;99.90
23207;DHT22;11773;52.570;13.052;2022-10-28T15:40:42;19.70;99.90
23207;DHT22;11773;52.570;13.052;2022-10-28T15:43:27;19.70;99.90
23207;DHT22;11773;52.570;13.052;2022-10-28T15:46:14;19.60;99.90
23207;DHT22;11773;52.570;13.052;2022-10-28T15:48:43;19.60;99.90
23207;DHT22;11773;52.570;13.052;2022-10-28T15:51:15;19.60;99.90
23207;DHT22;11773;52.570;13.052;2022-10-28T15:53:50;19.50;99.90
23207;DHT22;11773;52.570;13.052;2022-10-28T15:56:23;19.50;99.90
23207;DHT22;11773;52.570;13.052;2022-10-28T15:59:16;19.40;99.90
23207;DHT22;11773;52.570;13.052;2022-10-28T16:01:49;19.40;99.90
23207;DHT22;11773;52.570;13.052;2022-10-28T16:07:05;19.10;99.90
23207;DHT22;11773;52.570;13.052;2022-10-28T16:09:34;19.00;99.90
23207;DHT22;11773;52.570;13.052;2022-10-28T16:12:15;19.00;99.90
23207;DHT22;11773;52.570;13.052;2022-10-28T16:14:58;18.90;99.90
23207;DHT22;11773;52.570;13.052;2022-10-28T16:17:32;18.80;99.90
23207;DHT22;11773;52.570;13.052;2022-10-28T16:20:14;18.80;99.90
23207;DHT22;11773;52.570;13.052;2022-10-28T16:22:50;18.70;99.90
23207;DHT22;11773;52.570;13.052;2022-10-28T16:25:21;18.60;99.90
23207;DHT22;11773;52.570;13.052;2022-10-28T16:27:51;18.60;99.90
23207;DHT22;11773;52.570;13.052;2022-10-28T16:30:21;18.60;99.90
23207;DHT22;11773;52.570;13.052;2022-10-28T16:32:51;18.60;99.90
23207;DHT22;11773;52.570;13.052;2022-10-28T16:35:22;18.60;99.90
23207;DHT22;11773;52.570;13.052;2022-10-28T16:37:53;18.50;99.90
23207;DHT22;11773;52.570;13.052;2022-10-28T16:40:22;18.50;99.90
23207;DHT22;11773;52.570;13.052;2022-10-28T16:42:54;18.50;99.90
23207;DHT22;11773;52.570;13.052;2022-10-28T16:45:24;18.30;99.90
23207;DHT22;11773;52.570;13.052;2022-10-28T16:47:54;18.40;99.90
23207;DHT22;11773;52.570;13.052;2022-10-28T16:50:24;18.40;99.90
23207;DHT22;11773;52.570;13.052;2022-10-28T16:52:53;18.50;99.90
23207;DHT22;11773;52.570;13.052;2022-10-28T16:55:23;18.40;99.90
23207;DHT22;11773;52.570;13.052;2022-10-28T16:57:54;18.50;99.90
23207;DHT22;11773;52.570;13.052;2022-10-28T17:00:24;18.40;99.90
23207;DHT22;11773;52.570;13.052;2022-10-28T17:02:53;18.40;99.90
23207;DHT22;11773;52.570;13.052;2022-10-28T17:05:23;18.20;99.90
23207;DHT22;11773;52.570;13.052;2022-10-28T17:07:52;18.30;99.90
23207;DHT22;11773;52.570;13.052;2022-10-28T17:10:23;18.30;99.90
23207;DHT22;11773;52.570;13.052;2022-10-28T17:12:54;18.20;99.90
23207;DHT22;11773;52.570;13.052;2022-10-28T17:15:24;18.20;99.90
23207;DHT22;11773;52.570;13.052;2022-10-28T17:17:53;18.20;99.90
23207;DHT22;11773;52.570;13.052;2022-10-28T17:20:24;18.10;99.90
23207;DHT22;11773;52.570;13.052;2022-10-28T17:22:53;18.00;99.90
23207;DHT22;11773;52.570;13.052;2022-10-28T17:25:25;18.00;99.90
23207;DHT22;11773;52.570;13.052;2022-10-28T17:27:55;18.00;99.90
23207;DHT22;11773;52.570;13.052;2022-10-28T17:30:25;18.00;99.90
23207;DHT22;11773;52.570;13.052;2022-10-28T17:32:54;17.90;99.90
23207;DHT22;11773;52.570;13.052;2022-10-28T17:35:24;17.90;99.90
23207;DHT22;11773;52.570;13.052;2022-10-28T17:37:54;17.90;99.90
23207;DHT22;11773;52.570;13.052;2022-10-28T17:40:24;17.80;99.90
23207;DHT22;11773;52.570;13.052;2022-10-28T17:42:56;17.80;99.90
23207;DHT22;11773;52.570;13.052;2022-10-28T17:45:26;17.70;99.90
23207;DHT22;11773;52.570;13.052;2022-10-28T17:47:55;17.70;99.90